Terminal Aerodrome Forecast
Issued by NWS

Home | Current Version | Previous Version | Text Only | Print | Product List | Glossary On
Versions: 1 2 3 4 5 6 7 8 9 10 11 12 13 14 15 16 17
000
FTUS44 KTSA 230704 AAA
TAFFYV
TAF AMD
KFYV 230704Z 2307/2406 VRB02KT 1/4SM FG VV002
      TEMPO 2313/2314 3SM BR
     FM231400 21005KT P6SM SKC
     FM231700 25013G20KT P6SM FEW250
     FM232000 31015G24KT P6SM FEW250
     FM240100 30009KT P6SM SKC=

USA.gov is the U.S. government's official web portal to all federal, state and local government web resources and services.